createdAt,value
2022-07-25T00:01:47.844Z,8.77
2022-07-25T00:04:14.865Z,9.07
2022-07-25T00:06:42.563Z,9.13
2022-07-25T00:09:09.600Z,8.75
2022-07-25T00:11:36.421Z,8.30
2022-07-25T00:14:04.732Z,8.30
2022-07-25T00:16:32.228Z,8.48
2022-07-25T00:18:59.069Z,8.43
2022-07-25T00:21:26.461Z,8.13
2022-07-25T00:23:53.314Z,8.73
2022-07-25T00:26:20.050Z,8.40
2022-07-25T00:28:46.886Z,8.63
2022-07-25T00:31:13.745Z,8.52
2022-07-25T00:33:41.191Z,7.93
2022-07-25T00:36:08.847Z,8.43
2022-07-25T00:38:35.885Z,8.30
2022-07-25T00:41:03.714Z,8.57
2022-07-25T00:43:30.720Z,9.32
2022-07-25T00:45:59.347Z,8.88
2022-07-25T00:48:28.285Z,8.65
2022-07-25T00:50:56.629Z,8.75
2022-07-25T00:53:24.817Z,9.10
2022-07-25T00:55:52.421Z,8.40
2022-07-25T00:58:19.239Z,8.68
2022-07-25T01:00:46.882Z,8.20
2022-07-25T01:03:13.926Z,8.90
2022-07-25T01:05:41.074Z,8.52
2022-07-25T01:08:09.002Z,8.40
2022-07-25T01:10:36.101Z,9.30
2022-07-25T01:13:03.181Z,9.77
2022-07-25T01:15:30.306Z,9.20
2022-07-25T01:17:57.210Z,8.25
2022-07-25T01:20:26.576Z,8.60
2022-07-25T01:22:54.037Z,8.73
2022-07-25T01:25:21.583Z,9.15
2022-07-25T01:27:54.904Z,8.10
2022-07-25T01:30:23.804Z,8.07
2022-07-25T01:32:50.891Z,8.70
2022-07-25T01:35:17.906Z,7.97
2022-07-25T01:37:45.929Z,8.90
2022-07-25T01:40:14.434Z,9.18
2022-07-25T01:42:42.164Z,8.00
2022-07-25T01:45:09.566Z,9.27
2022-07-25T01:47:36.636Z,9.18
2022-07-25T01:50:04.493Z,9.07
2022-07-25T01:52:31.767Z,8.75
2022-07-25T01:54:58.591Z,8.18
2022-07-25T01:57:30.587Z,9.00
2022-07-25T01:59:58.374Z,8.68
2022-07-25T02:02:25.305Z,8.20
2022-07-25T02:04:52.196Z,8.52
2022-07-25T02:07:19.065Z,8.70
2022-07-25T02:09:45.913Z,8.38
2022-07-25T02:12:12.759Z,7.95
2022-07-25T02:14:39.702Z,8.38
2022-07-25T02:17:06.579Z,7.93
2022-07-25T02:19:34.376Z,8.30
2022-07-25T02:22:01.326Z,7.97
2022-07-25T02:24:28.106Z,8.63
2022-07-25T02:26:54.998Z,7.90
2022-07-25T02:29:22.249Z,7.88
2022-07-25T02:31:49.443Z,7.95
2022-07-25T02:34:16.192Z,8.50
2022-07-25T02:36:43.336Z,8.32
2022-07-25T02:39:10.130Z,9.20
2022-07-25T02:41:36.850Z,9.10
2022-07-25T02:44:04.980Z,8.35
2022-07-25T02:46:32.932Z,8.75
2022-07-25T02:48:59.897Z,8.20
2022-07-25T02:51:26.736Z,8.13
2022-07-25T02:53:58.469Z,8.48
2022-07-25T02:56:29.851Z,8.50
2022-07-25T02:58:57.415Z,8.07
2022-07-25T03:01:24.329Z,8.73
2022-07-25T03:03:51.544Z,8.50
2022-07-25T03:06:18.443Z,8.30
2022-07-25T03:08:45.181Z,8.73
2022-07-25T03:11:12.992Z,9.20
2022-07-25T03:13:40.079Z,8.48
2022-07-25T03:16:07.307Z,9.13
2022-07-25T03:18:34.055Z,8.93
2022-07-25T03:21:00.877Z,9.35
2022-07-25T03:23:28.564Z,8.70
2022-07-25T03:25:56.443Z,8.60
2022-07-25T03:28:24.732Z,8.93
2022-07-25T03:30:52.255Z,8.48
2022-07-25T03:33:19.266Z,9.27
2022-07-25T03:35:46.088Z,8.60
2022-07-25T03:38:12.913Z,8.90
2022-07-25T03:40:39.733Z,8.20
2022-07-25T03:43:06.741Z,9.00
2022-07-25T03:45:33.673Z,9.00
2022-07-25T03:48:00.952Z,9.20
2022-07-25T03:50:27.746Z,8.60
2022-07-25T03:52:54.474Z,8.57
2022-07-25T03:55:21.254Z,8.13
2022-07-25T03:57:47.979Z,8.90
2022-07-25T04:00:15.623Z,8.95
2022-07-25T04:02:42.541Z,8.38
2022-07-25T04:05:09.975Z,8.32
2022-07-25T04:07:37.345Z,9.05
2022-07-25T04:10:06.541Z,8.50
2022-07-25T04:12:33.562Z,8.68
2022-07-25T04:15:00.292Z,8.73
2022-07-25T04:17:27.044Z,8.35
2022-07-25T04:19:53.849Z,8.68
2022-07-25T04:22:22.302Z,8.70
2022-07-25T04:24:49.067Z,8.45
2022-07-25T04:27:15.760Z,10.02
2022-07-25T04:29:42.468Z,9.73
2022-07-25T04:32:09.309Z,9.95
2022-07-25T04:34:36.144Z,9.07
2022-07-25T04:37:03.045Z,9.50
2022-07-25T04:39:29.800Z,9.30
2022-07-25T04:41:56.608Z,9.35
2022-07-25T04:44:23.409Z,8.77
2022-07-25T04:46:50.218Z,9.27
2022-07-25T04:49:17.096Z,9.30
2022-07-25T04:51:43.958Z,9.50
2022-07-25T04:54:10.687Z,9.80
2022-07-25T04:56:37.433Z,9.60
2022-07-25T04:59:06.716Z,10.00
2022-07-25T05:01:34.876Z,10.65
2022-07-25T05:04:01.707Z,11.20
2022-07-25T05:06:28.439Z,10.55
2022-07-25T05:08:55.545Z,12.45
2022-07-25T05:11:22.633Z,11.60
2022-07-25T05:13:49.463Z,11.40
2022-07-25T05:16:16.417Z,12.73
2022-07-25T05:18:43.268Z,12.93
2022-07-25T05:21:11.927Z,13.18
2022-07-25T05:23:39.083Z,12.82
2022-07-25T05:26:06.039Z,14.45
2022-07-25T05:28:32.813Z,13.82
2022-07-25T05:30:59.597Z,13.77
2022-07-25T05:33:26.640Z,13.95
2022-07-25T05:35:53.574Z,14.30
2022-07-25T05:38:20.554Z,14.63
2022-07-25T05:40:48.274Z,15.10
2022-07-25T05:43:15.148Z,15.30
2022-07-25T05:45:42.457Z,13.23
2022-07-25T05:48:09.268Z,13.82
2022-07-25T05:50:39.388Z,15.23
2022-07-25T05:53:06.633Z,13.00
2022-07-25T05:55:33.424Z,14.80
2022-07-25T05:58:00.248Z,14.85
2022-07-25T06:00:29.713Z,15.35
2022-07-25T06:03:00.509Z,14.07
2022-07-25T06:05:27.586Z,13.10
2022-07-25T06:07:54.458Z,13.25
2022-07-25T06:10:21.601Z,13.68
2022-07-25T06:12:48.590Z,14.25
2022-07-25T06:15:22.841Z,14.52
2022-07-25T06:17:53.755Z,13.80
2022-07-25T06:20:20.734Z,13.82
2022-07-25T06:22:47.676Z,14.20
2022-07-25T06:25:15.252Z,12.80
2022-07-25T06:27:42.436Z,14.15
2022-07-25T06:30:19.084Z,13.55
2022-07-25T06:32:48.458Z,13.32
2022-07-25T06:35:15.761Z,13.07
2022-07-25T06:37:42.510Z,13.98
2022-07-25T06:40:09.814Z,13.73
2022-07-25T06:42:40.932Z,14.13
2022-07-25T06:45:09.825Z,13.98
2022-07-25T06:47:40.607Z,13.88
2022-07-25T06:50:11.312Z,14.02
2022-07-25T06:52:39.425Z,14.15
2022-07-25T06:55:07.690Z,13.95
2022-07-25T06:57:34.633Z,13.63
2022-07-25T07:00:01.498Z,13.32
2022-07-25T07:02:28.290Z,13.90
2022-07-25T07:04:54.985Z,14.25
2022-07-25T07:07:21.716Z,14.70
2022-07-25T07:09:48.417Z,13.48
2022-07-25T07:12:15.125Z,12.63
2022-07-25T07:14:44.472Z,12.48
2022-07-25T07:17:11.706Z,12.38
2022-07-25T07:19:44.482Z,13.38
2022-07-25T07:22:11.486Z,13.00
2022-07-25T07:24:45.115Z,12.82
2022-07-25T07:27:14.874Z,11.57
2022-07-25T07:29:42.032Z,12.35
2022-07-25T07:32:08.891Z,11.48
2022-07-25T07:34:35.649Z,11.85
2022-07-25T07:37:03.578Z,10.77
2022-07-25T07:39:30.409Z,11.68
2022-07-25T07:41:57.223Z,11.65
2022-07-25T07:44:23.924Z,11.45
2022-07-25T07:46:50.733Z,11.30
2022-07-25T07:49:17.593Z,11.63
2022-07-25T07:51:44.356Z,11.98
2022-07-25T07:54:29.706Z,11.52
2022-07-25T07:56:56.585Z,11.52
2022-07-25T07:59:23.303Z,11.70
2022-07-25T08:01:50.083Z,11.25
2022-07-25T08:04:17.044Z,10.93
2022-07-25T08:06:43.758Z,12.25
2022-07-25T08:09:10.564Z,10.90
2022-07-25T08:11:38.401Z,11.82
2022-07-25T08:14:07.474Z,11.05
2022-07-25T08:16:34.645Z,10.50
2022-07-25T08:19:01.733Z,10.68
2022-07-25T08:21:28.834Z,11.70
2022-07-25T08:23:55.599Z,11.52
2022-07-25T08:26:22.374Z,10.70
2022-07-25T08:28:59.864Z,10.50
2022-07-25T08:31:35.937Z,11.20
2022-07-25T08:34:03.915Z,10.95
2022-07-25T08:36:34.876Z,11.07
2022-07-25T08:39:02.190Z,11.45
2022-07-25T08:41:29.139Z,10.43
2022-07-25T08:43:56.187Z,10.77
2022-07-25T08:46:23.523Z,11.18
2022-07-25T08:48:52.280Z,11.00
2022-07-25T08:51:19.510Z,11.13
2022-07-25T08:53:48.508Z,12.10
2022-07-25T08:56:20.632Z,11.20
2022-07-25T08:58:48.057Z,10.70
2022-07-25T09:01:15.012Z,10.82
2022-07-25T09:03:43.054Z,10.32
2022-07-25T09:06:21.546Z,11.10
2022-07-25T09:08:56.037Z,10.55
2022-07-25T09:11:27.777Z,11.13
2022-07-25T09:14:02.426Z,10.98
2022-07-25T09:16:31.401Z,11.50
2022-07-25T09:19:13.631Z,11.00
2022-07-25T09:21:41.827Z,10.55
2022-07-25T09:24:22.461Z,10.80
2022-07-25T09:26:55.502Z,10.43
2022-07-25T09:29:28.244Z,10.65
2022-07-25T09:31:56.492Z,11.40
2022-07-25T09:34:34.534Z,10.90
2022-07-25T09:37:03.752Z,11.35
2022-07-25T09:39:51.648Z,11.40
2022-07-25T09:42:28.989Z,11.07
2022-07-25T09:45:11.346Z,10.98
2022-07-25T09:47:54.672Z,11.27
2022-07-25T09:50:23.850Z,11.48
2022-07-25T09:52:52.748Z,11.27
2022-07-25T09:55:21.640Z,10.75
2022-07-25T09:57:50.123Z,10.80
2022-07-25T10:00:24.990Z,10.52
2022-07-25T10:03:16.670Z,9.40
2022-07-25T10:05:56.763Z,9.45
2022-07-25T10:08:24.723Z,9.32
2022-07-25T10:10:52.459Z,9.50
2022-07-25T10:13:34.841Z,9.10
2022-07-25T10:16:02.377Z,8.52
2022-07-25T10:18:30.804Z,9.07
2022-07-25T10:21:26.103Z,8.55
2022-07-25T10:24:06.068Z,8.45
2022-07-25T10:26:41.385Z,6.90
2022-07-25T10:29:14.066Z,6.90
2022-07-25T10:31:50.909Z,7.43
2022-07-25T10:34:30.822Z,7.47
2022-07-25T10:37:09.813Z,7.28
2022-07-25T10:39:45.005Z,6.90
2022-07-25T10:42:17.113Z,6.57
2022-07-25T10:44:48.283Z,6.45
2022-07-25T10:47:16.737Z,6.60
2022-07-25T10:50:13.417Z,6.53
2022-07-25T10:52:40.022Z,6.85
2022-07-25T10:55:07.522Z,6.82
2022-07-25T10:57:34.563Z,6.85
2022-07-25T11:00:06.429Z,6.68
2022-07-25T11:02:33.253Z,6.63
2022-07-25T11:05:02.107Z,6.75
2022-07-25T11:07:29.102Z,6.32
2022-07-25T11:10:01.220Z,6.40
2022-07-25T11:12:28.243Z,6.80
2022-07-25T11:15:03.567Z,6.07
2022-07-25T11:17:30.581Z,6.60
2022-07-25T11:20:11.705Z,6.63
2022-07-25T11:22:38.433Z,7.18
2022-07-25T11:25:16.806Z,5.97
2022-07-25T11:27:43.593Z,6.53
2022-07-25T11:30:19.819Z,6.88
2022-07-25T11:32:54.121Z,6.78
2022-07-25T11:35:24.251Z,6.90
2022-07-25T11:37:52.264Z,6.88
2022-07-25T11:40:20.778Z,6.88
2022-07-25T11:42:53.006Z,6.70
2022-07-25T11:45:22.617Z,7.50
2022-07-25T11:48:10.939Z,6.82
2022-07-25T11:50:39.850Z,6.65
2022-07-25T11:53:08.966Z,7.07
2022-07-25T11:55:40.194Z,6.93
2022-07-25T11:58:07.207Z,6.80
2022-07-25T12:00:36.631Z,6.70
2022-07-25T12:03:09.063Z,7.30
2022-07-25T12:05:36.444Z,6.95
2022-07-25T12:08:20.852Z,7.07
2022-07-25T12:10:50.536Z,7.28
2022-07-25T12:13:28.818Z,6.85
2022-07-25T12:15:59.847Z,6.88
2022-07-25T12:18:27.654Z,6.95
2022-07-25T12:20:54.391Z,6.50
2022-07-25T12:23:24.024Z,7.20
2022-07-25T12:25:50.991Z,7.45
2022-07-25T12:28:18.093Z,7.35
2022-07-25T12:30:46.528Z,6.43
2022-07-25T12:33:14.266Z,7.25
2022-07-25T12:35:42.600Z,7.72
2022-07-25T12:38:11.023Z,6.78
2022-07-25T12:40:38.089Z,6.32
2022-07-25T12:43:05.398Z,6.75
2022-07-25T12:45:32.427Z,6.75
2022-07-25T12:47:59.225Z,6.15
2022-07-25T12:50:26.197Z,6.50
2022-07-25T12:52:53.388Z,6.38
2022-07-25T12:55:20.806Z,6.10
2022-07-25T12:57:47.978Z,6.05
2022-07-25T13:00:18.757Z,6.63
2022-07-25T13:02:45.557Z,6.40
2022-07-25T13:05:12.657Z,6.25
2022-07-25T13:07:39.918Z,6.20
2022-07-25T13:10:07.031Z,5.80
2022-07-25T13:12:33.948Z,6.18
2022-07-25T13:15:01.593Z,6.00
2022-07-25T13:17:28.372Z,5.80
2022-07-25T13:19:56.523Z,6.05
2022-07-25T13:22:23.672Z,5.60
2022-07-25T13:24:51.294Z,5.70
2022-07-25T13:27:19.694Z,5.70
2022-07-25T13:29:47.072Z,4.95
2022-07-25T13:32:13.933Z,5.80
2022-07-25T13:34:40.663Z,5.70
2022-07-25T13:37:07.499Z,5.70
2022-07-25T13:39:35.698Z,5.38
2022-07-25T13:42:02.961Z,5.53
2022-07-25T13:44:29.648Z,5.70
2022-07-25T13:46:57.461Z,5.20
2022-07-25T13:49:24.930Z,5.97
2022-07-25T13:51:51.866Z,5.50
2022-07-25T13:54:18.597Z,4.93
2022-07-25T13:56:45.509Z,4.53
2022-07-25T13:59:17.342Z,5.10
2022-07-25T14:01:47.531Z,4.60
2022-07-25T14:04:14.444Z,4.57
2022-07-25T14:06:41.693Z,4.43
2022-07-25T14:09:08.969Z,4.35
2022-07-25T14:11:36.374Z,5.10
2022-07-25T14:14:03.168Z,4.72
2022-07-25T14:16:30.073Z,4.50
2022-07-25T14:18:56.910Z,4.90
2022-07-25T14:21:24.062Z,4.68
2022-07-25T14:23:52.298Z,4.68
2022-07-25T14:26:19.182Z,5.03
2022-07-25T14:28:46.030Z,4.50
2022-07-25T14:31:13.055Z,4.78
2022-07-25T14:33:40.527Z,4.90
2022-07-25T14:36:09.694Z,4.78
2022-07-25T14:38:36.627Z,4.60
2022-07-25T14:41:05.681Z,4.90
2022-07-25T14:43:35.828Z,4.88
2022-07-25T14:46:02.567Z,4.60
2022-07-25T14:48:29.422Z,5.18
2022-07-25T14:50:56.263Z,5.28
2022-07-25T14:53:23.005Z,5.13
2022-07-25T14:55:49.823Z,5.55
2022-07-25T14:58:16.599Z,5.43
2022-07-25T15:00:43.866Z,5.13
2022-07-25T15:03:10.691Z,5.75
2022-07-25T15:05:38.609Z,6.30
2022-07-25T15:08:06.570Z,5.47
2022-07-25T15:10:33.662Z,5.72
2022-07-25T15:13:28.140Z,5.70
2022-07-25T15:15:47.664Z,5.63
2022-07-25T15:18:14.868Z,5.38
2022-07-25T15:20:42.011Z,5.60
2022-07-25T15:23:08.943Z,6.13
2022-07-25T15:26:00.698Z,6.00
2022-07-25T15:28:22.994Z,5.88
2022-07-25T15:30:50.503Z,6.03
2022-07-25T15:33:20.550Z,5.50
2022-07-25T15:35:48.378Z,6.15
2022-07-25T15:38:16.366Z,5.97
2022-07-25T15:40:44.027Z,6.25
2022-07-25T15:43:11.199Z,6.28
2022-07-25T15:45:39.436Z,6.25
2022-07-25T15:48:08.341Z,6.45
2022-07-25T15:50:37.332Z,6.13
2022-07-25T15:53:04.494Z,6.32
2022-07-25T15:55:32.446Z,6.50
2022-07-25T15:58:00.238Z,6.38
2022-07-25T16:00:29.746Z,6.32
2022-07-25T16:02:57.499Z,6.78
2022-07-25T16:05:24.770Z,6.53
2022-07-25T16:07:52.191Z,6.28
2022-07-25T16:10:18.926Z,6.10
2022-07-25T16:12:45.896Z,6.80
2022-07-25T16:15:12.802Z,6.47
2022-07-25T16:17:39.985Z,7.13
2022-07-25T16:20:09.150Z,6.72
2022-07-25T16:22:36.308Z,7.20
2022-07-25T16:25:04.263Z,6.75
2022-07-25T16:27:31.465Z,6.93
2022-07-25T16:29:58.622Z,7.00
2022-07-25T16:32:25.638Z,6.50
2022-07-25T16:34:52.430Z,7.50
2022-07-25T16:37:20.744Z,6.90
2022-07-25T16:39:47.517Z,7.43
2022-07-25T16:42:14.566Z,6.90
2022-07-25T16:44:41.394Z,6.85
2022-07-25T16:47:08.481Z,6.85
2022-07-25T16:49:35.275Z,7.10
2022-07-25T16:52:01.991Z,7.47
2022-07-25T16:54:29.586Z,6.90
2022-07-25T16:56:59.608Z,7.20
2022-07-25T16:59:26.795Z,6.55
2022-07-25T17:01:53.640Z,6.43
2022-07-25T17:04:20.580Z,6.40
2022-07-25T17:06:47.478Z,6.70
2022-07-25T17:09:14.197Z,6.43
2022-07-25T17:11:41.311Z,6.80
2022-07-25T17:14:08.083Z,6.93
2022-07-25T17:16:35.029Z,6.28
2022-07-25T17:19:05.104Z,6.55
2022-07-25T17:21:32.070Z,6.38
2022-07-25T17:23:58.940Z,6.50
2022-07-25T17:26:25.748Z,6.45
2022-07-25T17:28:53.661Z,6.70
2022-07-25T17:31:20.477Z,6.50
2022-07-25T17:33:47.738Z,6.60
2022-07-25T17:36:14.503Z,6.68
2022-07-25T17:38:41.537Z,6.85
2022-07-25T17:41:08.229Z,7.57
2022-07-25T17:43:35.409Z,6.50
2022-07-25T17:46:02.357Z,6.38
2022-07-25T17:48:29.273Z,6.50
2022-07-25T17:50:56.080Z,5.97
2022-07-25T17:53:22.952Z,6.70
2022-07-25T17:55:49.702Z,6.28
2022-07-25T17:58:16.437Z,6.55
2022-07-25T18:00:43.395Z,6.25
2022-07-25T18:03:10.168Z,6.32
2022-07-25T18:05:37.447Z,6.40
2022-07-25T18:08:04.621Z,6.15
2022-07-25T18:10:31.566Z,6.85
2022-07-25T18:13:00.794Z,6.53
2022-07-25T18:15:28.240Z,6.80
2022-07-25T18:17:55.135Z,6.97
2022-07-25T18:20:22.049Z,7.20
2022-07-25T18:22:48.800Z,6.47
2022-07-25T18:25:15.575Z,7.00
2022-07-25T18:27:46.980Z,6.53
2022-07-25T18:30:15.555Z,6.60
2022-07-25T18:32:42.883Z,6.70
2022-07-25T18:35:11.167Z,6.75
2022-07-25T18:37:38.268Z,6.78
2022-07-25T18:40:07.127Z,7.05
2022-07-25T18:42:34.386Z,7.10
2022-07-25T18:45:01.233Z,7.20
2022-07-25T18:47:32.068Z,6.97
2022-07-25T18:49:59.545Z,7.28
2022-07-25T18:52:26.486Z,6.93
2022-07-25T18:54:53.539Z,6.78
2022-07-25T18:57:20.291Z,6.57
2022-07-25T18:59:47.544Z,6.90
2022-07-25T19:02:14.332Z,6.43
2022-07-25T19:04:41.103Z,7.00
2022-07-25T19:07:09.002Z,6.88
2022-07-25T19:09:35.819Z,7.03
2022-07-25T19:12:02.733Z,6.47
2022-07-25T19:14:30.864Z,6.70
2022-07-25T19:16:59.696Z,6.40
2022-07-25T19:19:26.990Z,6.75
2022-07-25T19:21:54.079Z,6.85
2022-07-25T19:24:21.770Z,8.88
2022-07-25T19:26:49.203Z,7.65
2022-07-25T19:29:16.893Z,8.55
2022-07-25T19:31:44.281Z,7.32
2022-07-25T19:34:11.638Z,7.63
2022-07-25T19:36:38.663Z,7.85
2022-07-25T19:39:06.283Z,7.68
2022-07-25T19:41:33.762Z,8.25
2022-07-25T19:44:00.815Z,7.80
2022-07-25T19:46:31.502Z,8.18
2022-07-25T19:48:58.522Z,7.60
2022-07-25T19:51:25.838Z,7.70
2022-07-25T19:53:52.655Z,8.02
2022-07-25T19:56:20.129Z,8.48
2022-07-25T19:58:46.892Z,8.45
2022-07-25T20:01:13.750Z,7.70
2022-07-25T20:03:41.613Z,7.22
2022-07-25T20:06:09.040Z,7.60
2022-07-25T20:08:37.135Z,8.40
2022-07-25T20:11:04.308Z,7.93
2022-07-25T20:13:31.081Z,7.88
2022-07-25T20:15:58.755Z,8.05
2022-07-25T20:18:25.644Z,7.70
2022-07-25T20:20:52.889Z,7.30
2022-07-25T20:23:19.649Z,6.97
2022-07-25T20:25:46.468Z,6.45
2022-07-25T20:28:13.237Z,6.28
2022-07-25T20:30:40.603Z,5.95
2022-07-25T20:33:09.587Z,6.10
2022-07-25T20:35:37.742Z,5.78
2022-07-25T20:38:09.194Z,5.53
2022-07-25T20:40:39.542Z,5.60
2022-07-25T20:43:09.222Z,5.53
2022-07-25T20:45:36.794Z,5.43
2022-07-25T20:48:04.976Z,5.63
2022-07-25T20:50:32.189Z,5.50
2022-07-25T20:52:58.922Z,5.55
2022-07-25T20:55:28.413Z,5.68
2022-07-25T20:57:55.295Z,5.40
2022-07-25T21:00:23.051Z,5.07
2022-07-25T21:02:49.933Z,5.43
2022-07-25T21:05:16.726Z,5.20
2022-07-25T21:07:43.564Z,5.15
2022-07-25T21:10:11.423Z,4.75
2022-07-25T21:12:39.401Z,5.07
2022-07-25T21:15:07.669Z,4.68
2022-07-25T21:17:34.839Z,4.82
2022-07-25T21:20:01.634Z,5.00
2022-07-25T21:22:28.402Z,5.15
2022-07-25T21:24:55.393Z,4.65
2022-07-25T21:27:22.570Z,4.43
2022-07-25T21:29:49.328Z,4.40
2022-07-25T21:32:17.321Z,4.43
2022-07-25T21:34:45.637Z,4.38
2022-07-25T21:37:13.116Z,4.43
2022-07-25T21:39:39.885Z,4.35
2022-07-25T21:42:09.790Z,4.63
2022-07-25T21:44:42.308Z,4.55
2022-07-25T21:47:09.785Z,4.68
2022-07-25T21:49:55.534Z,5.00
2022-07-25T21:52:26.620Z,4.80
2022-07-25T21:54:57.290Z,4.78
2022-07-25T21:57:24.198Z,4.80
2022-07-25T21:59:51.021Z,4.63
2022-07-25T22:02:18.486Z,4.47
2022-07-25T22:04:45.417Z,4.43
2022-07-25T22:07:12.255Z,4.70
2022-07-25T22:09:39.039Z,4.63
2022-07-25T22:12:06.191Z,4.57
2022-07-25T22:14:32.974Z,4.68
2022-07-25T22:17:00.089Z,5.03
2022-07-25T22:19:27.079Z,5.03
2022-07-25T22:21:54.031Z,4.80
2022-07-25T22:24:21.103Z,5.20
2022-07-25T22:26:47.947Z,4.60
2022-07-25T22:29:14.658Z,4.88
2022-07-25T22:31:41.465Z,4.70
2022-07-25T22:34:08.562Z,4.78
2022-07-25T22:36:35.499Z,4.53
2022-07-25T22:39:02.195Z,4.72
2022-07-25T22:41:28.962Z,4.35
2022-07-25T22:43:59.128Z,4.70
2022-07-25T22:46:29.204Z,5.03
2022-07-25T22:48:57.008Z,4.13
2022-07-25T22:51:24.466Z,4.95
2022-07-25T22:53:51.177Z,4.80
2022-07-25T22:56:17.952Z,4.65
2022-07-25T22:58:46.689Z,4.60
2022-07-25T23:01:16.371Z,4.63
2022-07-25T23:03:43.363Z,4.57
2022-07-25T23:06:10.404Z,4.60
2022-07-25T23:08:37.413Z,4.78
2022-07-25T23:11:06.113Z,4.40
2022-07-25T23:13:33.803Z,4.05
2022-07-25T23:16:01.045Z,4.22
2022-07-25T23:18:30.120Z,4.50
2022-07-25T23:20:56.886Z,4.43
2022-07-25T23:23:23.727Z,4.47
2022-07-25T23:25:50.498Z,4.32
2022-07-25T23:28:17.239Z,4.05
2022-07-25T23:30:43.958Z,4.80
2022-07-25T23:33:10.787Z,4.20
2022-07-25T23:35:37.892Z,4.55
2022-07-25T23:38:05.052Z,4.22
2022-07-25T23:40:31.841Z,4.65
2022-07-25T23:42:58.629Z,5.07
2022-07-25T23:45:28.016Z,4.47
2022-07-25T23:47:56.284Z,4.30
2022-07-25T23:50:24.024Z,3.92
2022-07-25T23:52:51.046Z,4.05
2022-07-25T23:55:17.827Z,4.57
2022-07-25T23:57:44.599Z,4.50
